createdAt,value
2019-02-25T00:03:33.365Z,90.80
2019-02-25T00:08:37.093Z,91.20
2019-02-25T00:13:40.872Z,91.20
2019-02-25T00:18:44.608Z,91.00
2019-02-25T00:23:48.315Z,91.10
2019-02-25T00:28:52.085Z,91.10
2019-02-25T00:33:55.905Z,91.40
2019-02-25T00:39:00.006Z,91.40
2019-02-25T00:44:03.747Z,91.00
2019-02-25T00:49:07.432Z,91.40
2019-02-25T00:54:11.524Z,91.40
2019-02-25T00:59:15.653Z,91.60
2019-02-25T01:04:19.399Z,91.70
2019-02-25T01:09:23.163Z,92.40
2019-02-25T01:14:26.963Z,92.30
2019-02-25T01:19:30.682Z,92.90
2019-02-25T01:24:34.816Z,93.60
2019-02-25T01:29:38.534Z,93.00
2019-02-25T01:34:42.340Z,92.90
2019-02-25T01:39:46.029Z,93.30
2019-02-25T01:44:50.194Z,92.90
2019-02-25T01:49:53.916Z,93.30
2019-02-25T01:54:57.597Z,93.60
2019-02-25T02:00:01.309Z,93.90
2019-02-25T02:05:05.381Z,93.80
2019-02-25T02:10:11.084Z,94.50
2019-02-25T02:15:15.979Z,94.90
2019-02-25T02:20:20.111Z,95.00
2019-02-25T02:25:23.821Z,94.20
2019-02-25T02:30:27.978Z,93.30
2019-02-25T02:35:31.845Z,93.80
2019-02-25T02:40:35.596Z,93.80
2019-02-25T02:45:46.211Z,94.30
2019-02-25T02:50:49.921Z,94.20
2019-02-25T02:55:53.654Z,94.70
2019-02-25T03:00:57.766Z,94.80
2019-02-25T03:06:01.578Z,94.90
2019-02-25T03:11:05.443Z,94.20
2019-02-25T03:16:09.162Z,94.20
2019-02-25T03:21:12.923Z,94.70
2019-02-25T03:26:16.841Z,94.40
2019-02-25T03:31:20.510Z,94.80
2019-02-25T03:36:32.209Z,95.00
2019-02-25T03:41:35.959Z,94.60
2019-02-25T03:46:39.677Z,95.10
2019-02-25T03:51:43.381Z,95.30
2019-02-25T03:56:47.116Z,95.70
2019-02-25T04:01:50.931Z,95.30
2019-02-25T04:06:54.631Z,95.80
2019-02-25T04:11:58.329Z,95.20
2019-02-25T04:17:02.013Z,95.50
2019-02-25T04:22:05.986Z,96.10
2019-02-25T04:27:09.768Z,96.10
2019-02-25T04:32:13.519Z,95.60
2019-02-25T04:37:17.240Z,95.60
2019-02-25T04:42:20.963Z,95.80
2019-02-25T04:47:24.655Z,96.20
2019-02-25T04:52:28.683Z,96.70
2019-02-25T04:57:32.394Z,96.80
2019-02-25T05:02:36.089Z,97.00
2019-02-25T05:07:39.785Z,96.90
2019-02-25T05:12:49.209Z,96.40
2019-02-25T05:17:52.901Z,96.70
2019-02-25T05:22:56.591Z,96.70
2019-02-25T05:28:00.368Z,97.20
2019-02-25T05:33:04.142Z,97.10
2019-02-25T05:38:07.812Z,96.80
2019-02-25T05:43:12.306Z,96.50
2019-02-25T05:48:16.165Z,96.60
2019-02-25T05:53:20.211Z,96.60
2019-02-25T05:58:23.897Z,96.70
2019-02-25T06:03:27.571Z,97.40
2019-02-25T06:08:31.282Z,97.70
2019-02-25T06:13:35.043Z,98.40
2019-02-25T06:18:38.822Z,98.30
2019-02-25T06:23:42.597Z,98.40
2019-02-25T06:28:46.619Z,98.70
2019-02-25T06:33:50.549Z,96.90
2019-02-25T06:38:54.346Z,96.00
2019-02-25T06:43:58.086Z,99.30
2019-02-25T06:49:01.882Z,95.20
2019-02-25T06:54:05.569Z,94.10
2019-02-25T06:59:09.678Z,94.00
2019-02-25T07:04:28.663Z,93.40
2019-02-25T07:09:52.605Z,93.60
2019-02-25T07:15:18.462Z,93.50
2019-02-25T07:20:34.051Z,92.30
2019-02-25T07:25:57.141Z,92.00
2019-02-25T07:31:20.928Z,91.20
2019-02-25T07:36:33.154Z,91.10
2019-02-25T07:41:45.581Z,90.30
2019-02-25T07:46:56.146Z,87.20
2019-02-25T07:52:25.061Z,76.70
2019-02-25T07:57:47.874Z,66.00
2019-02-25T08:03:14.269Z,58.10
2019-02-25T08:08:25.789Z,53.30
2019-02-25T08:13:51.441Z,49.80
2019-02-25T08:19:13.298Z,46.90
2019-02-25T08:24:40.890Z,45.60
2019-02-25T08:29:58.306Z,43.40
2019-02-25T08:35:23.443Z,39.00
2019-02-25T08:40:43.627Z,38.00
2019-02-25T08:46:02.103Z,35.90
2019-02-25T08:51:05.881Z,31.10
2019-02-25T08:56:09.607Z,28.50
2019-02-25T09:01:15.326Z,26.30
2019-02-25T09:06:19.010Z,24.60
2019-02-25T09:11:23.002Z,23.70
2019-02-25T09:16:27.126Z,22.70
2019-02-25T09:21:32.117Z,21.90
2019-02-25T09:26:36.016Z,21.30
2019-02-25T09:31:39.729Z,21.60
2019-02-25T09:36:43.425Z,20.70
2019-02-25T09:41:47.149Z,19.20
2019-02-25T09:46:50.868Z,19.40
2019-02-25T09:51:54.861Z,19.20
2019-02-25T09:56:58.876Z,18.70
2019-02-25T10:02:02.596Z,17.80
2019-02-25T10:07:06.593Z,17.30
2019-02-25T10:12:10.594Z,17.20
2019-02-25T10:17:23.304Z,17.40
2019-02-25T10:22:20.016Z,18.10
2019-02-25T10:27:23.760Z,17.90
2019-02-25T10:32:28.705Z,17.10
2019-02-25T10:37:36.292Z,16.80
2019-02-25T10:42:40.354Z,17.40
2019-02-25T10:47:46.461Z,17.40
2019-02-25T10:52:49.775Z,17.20
2019-02-25T10:57:56.576Z,18.00
2019-02-25T11:02:59.320Z,17.90
2019-02-25T11:08:05.321Z,17.80
2019-02-25T11:13:10.865Z,18.00
2019-02-25T11:18:14.568Z,17.50
2019-02-25T11:23:19.413Z,18.20
2019-02-25T11:28:26.126Z,18.40
2019-02-25T11:33:30.251Z,17.80
2019-02-25T11:38:37.269Z,18.40
2019-02-25T11:43:40.326Z,16.80
2019-02-25T11:48:44.046Z,17.50
2019-02-25T11:53:47.746Z,18.10
2019-02-25T11:58:51.743Z,17.80
2019-02-25T12:03:55.541Z,17.60
2019-02-25T12:08:59.253Z,17.90
2019-02-25T12:14:02.956Z,17.70
2019-02-25T12:19:06.713Z,17.90
2019-02-25T12:24:10.456Z,17.50
2019-02-25T12:29:14.151Z,17.40
2019-02-25T12:34:17.888Z,17.70
2019-02-25T12:39:21.673Z,17.80
2019-02-25T12:44:25.638Z,17.90
2019-02-25T12:49:29.376Z,18.80
2019-02-25T12:54:33.395Z,18.70
2019-02-25T12:59:37.108Z,19.10
2019-02-25T13:04:41.162Z,18.90
2019-02-25T13:09:44.877Z,19.30
2019-02-25T13:14:48.653Z,19.80
2019-02-25T13:19:52.348Z,19.90
2019-02-25T13:24:56.393Z,19.50
2019-02-25T13:30:00.305Z,19.90
2019-02-25T13:35:04.545Z,20.10
2019-02-25T13:40:09.110Z,19.90
2019-02-25T13:45:13.344Z,19.90
2019-02-25T13:50:17.351Z,21.00
2019-02-25T13:55:21.167Z,22.50
2019-02-25T14:00:25.071Z,21.30
2019-02-25T14:05:29.009Z,21.70
2019-02-25T14:10:32.853Z,21.30
2019-02-25T14:15:37.477Z,20.80
2019-02-25T14:20:41.266Z,22.10
2019-02-25T14:25:46.231Z,22.70
2019-02-25T14:30:51.603Z,22.20
2019-02-25T14:35:55.428Z,22.30
2019-02-25T14:41:01.846Z,23.90
2019-02-25T14:46:07.741Z,23.60
2019-02-25T14:51:12.442Z,23.40
2019-02-25T14:56:16.317Z,23.30
2019-02-25T15:01:23.327Z,24.40
2019-02-25T15:06:28.215Z,24.00
2019-02-25T15:11:32.314Z,23.70
2019-02-25T15:16:36.151Z,24.90
2019-02-25T15:21:43.021Z,24.80
2019-02-25T15:26:45.939Z,25.90
2019-02-25T15:31:50.495Z,25.50
2019-02-25T15:37:00.551Z,26.50
2019-02-25T15:42:04.156Z,27.90
2019-02-25T15:47:08.624Z,28.00
2019-02-25T15:52:16.544Z,28.10
2019-02-25T15:57:20.580Z,28.90
2019-02-25T16:02:24.657Z,29.30
2019-02-25T16:07:29.832Z,29.60
2019-02-25T16:12:36.018Z,31.20
2019-02-25T16:17:39.837Z,32.40
2019-02-25T16:22:43.754Z,34.20
2019-02-25T16:27:50.033Z,35.40
2019-02-25T16:32:53.308Z,36.80
2019-02-25T16:37:57.569Z,37.70
2019-02-25T16:43:02.789Z,39.70
2019-02-25T16:48:09.127Z,39.90
2019-02-25T16:53:15.528Z,40.70
2019-02-25T16:58:19.048Z,41.80
2019-02-25T17:03:22.842Z,42.50
2019-02-25T17:08:28.164Z,43.40
2019-02-25T17:13:33.057Z,44.20
2019-02-25T17:18:37.650Z,44.40
2019-02-25T17:23:41.428Z,44.80
2019-02-25T17:28:45.616Z,45.20
2019-02-25T17:33:51.321Z,46.00
2019-02-25T17:38:54.973Z,46.80
2019-02-25T17:43:59.221Z,47.40
2019-02-25T17:49:06.232Z,47.90
2019-02-25T17:54:10.242Z,48.70
2019-02-25T17:59:15.209Z,49.10
2019-02-25T18:04:19.300Z,49.80
2019-02-25T18:09:24.854Z,49.80
2019-02-25T18:14:28.703Z,50.30
2019-02-25T18:19:32.451Z,49.70
2019-02-25T18:24:36.323Z,49.90
2019-02-25T18:29:41.423Z,51.20
2019-02-25T18:34:45.943Z,52.00
2019-02-25T18:39:52.105Z,52.70
2019-02-25T18:44:56.560Z,54.10
2019-02-25T18:50:02.296Z,55.30
2019-02-25T18:55:08.843Z,56.50
2019-02-25T19:00:17.516Z,57.90
2019-02-25T19:05:23.323Z,59.40
2019-02-25T19:10:28.242Z,60.30
2019-02-25T19:15:32.092Z,61.80
2019-02-25T19:20:36.737Z,62.50
2019-02-25T19:25:41.844Z,63.90
2019-02-25T19:30:46.224Z,65.50
2019-02-25T19:35:52.459Z,66.80
2019-02-25T19:40:57.495Z,66.10
2019-02-25T19:46:02.259Z,66.30
2019-02-25T19:51:06.821Z,65.50
2019-02-25T19:56:10.896Z,66.90
2019-02-25T20:01:14.720Z,66.80
2019-02-25T20:06:20.924Z,66.10
2019-02-25T20:11:25.843Z,67.90
2019-02-25T20:16:32.094Z,68.30
2019-02-25T20:21:35.339Z,71.20
2019-02-25T20:26:39.059Z,70.50
2019-02-25T20:31:43.096Z,71.20
2019-02-25T20:36:48.350Z,73.50
2019-02-25T20:41:54.261Z,74.70
2019-02-25T20:47:00.153Z,75.90
2019-02-25T20:52:03.814Z,76.30
2019-02-25T20:57:08.462Z,76.50
2019-02-25T21:02:16.129Z,77.90
2019-02-25T21:07:18.952Z,78.60
2019-02-25T21:12:22.920Z,79.70
2019-02-25T21:17:28.561Z,80.60
2019-02-25T21:22:34.037Z,79.90
2019-02-25T21:27:39.555Z,80.70
2019-02-25T21:32:47.199Z,81.20
2019-02-25T21:37:54.670Z,82.00
2019-02-25T21:42:58.568Z,82.30
2019-02-25T21:48:04.959Z,83.90
2019-02-25T21:58:59.180Z,84.70
2019-02-25T22:04:02.860Z,85.20
2019-02-25T22:09:08.077Z,86.70
2019-02-25T22:14:12.306Z,87.60
2019-02-25T22:19:18.713Z,88.90
2019-02-25T22:24:27.153Z,89.20
2019-02-25T22:29:28.820Z,88.60
2019-02-25T22:34:34.663Z,89.50
2019-02-25T22:39:38.695Z,89.40
2019-02-25T22:44:45.203Z,90.20
2019-02-25T22:49:49.644Z,90.10
2019-02-25T22:54:53.883Z,90.40
2019-02-25T22:59:57.990Z,90.50
2019-02-25T23:05:01.838Z,90.70
2019-02-25T23:10:10.254Z,90.40
2019-02-25T23:15:13.312Z,90.30
2019-02-25T23:20:17.521Z,90.30
2019-02-25T23:25:27.558Z,90.20
2019-02-25T23:30:31.426Z,90.50
2019-02-25T23:35:35.204Z,91.00
2019-02-25T23:40:40.264Z,90.70
2019-02-25T23:45:46.384Z,90.90
2019-02-25T23:50:50.815Z,91.50
2019-02-25T23:55:56.513Z,91.60
